Details for Thomas Cook Airlines at EGCC




Go Back


Latest METAR
Local Time

EGCC 252220Z AUTO 05011KT 9000 SCT010 13/12 Q1022 TEMPO BKN010

25/05/2018, 23:27:02

Description
Results
Thomas Cook Airlines Logo
Number of Pilots based at EGCC
1 Pilots Based here
Number of Thomas Cook Airlines Flights Departed from EGCC
1 Flights Departed
Number of Thomas Cook Airlines Flights Arrived at EGCC
1 Flights Arrived
Number of Thomas Cook Airlines Schedules Departing from EGCC
82 Schedules
Number of Thomas Cook Airlines Schedules Arriving at EGCC
85 Schedules
Number of Thomas Cook Airlines Schedules Departing from EGCC availible today
16 Schedules Today
Number of Thomas Cook Airlines Schedules Arriving at EGCC availible today
19 Schedules Today
Average Landing Rate at EGCC
-211 fpm
Thomas Cook Airlines Average Landing Rate at EGCC
-205 fpm
Total Fuel Purchased at EGCC by Thomas Cook Airlines
10,600.00 kgs / 23,368.76 lbs

Pilots Based at EGCC


Pilot ID
Pilot Name
Pilot Rank
No. of Flights
No. of Flying Hours
Andrew Sutcliffe
369
1400.17
Content